Terminal Aerodrome Forecast
Issued by NWS Jacksonville, FL

Home | Current Version | Previous Version | Text Only | Print | Product List | Glossary On
Versions: 1 2 3 4 5 6 7 8 9 10 11 12 13 14 15 16 17 18
000
FTUS42 KJAX 310500 RRA
TAFGNV
TAF
KGNV 310547Z 3106/0106 30003KT P6SM FEW070 FEW250
     FM311400 13008KT P6SM FEW070
     FM312100 18007KT P6SM SCT070
     FM010100 13003KT P6SM FEW030 SCT070 SCT250=

USA.gov is the U.S. government's official web portal to all federal, state and local government web resources and services.